sensor_id;sensor_type;location;lat;lon;timestamp;pressure;altitude;pressure_sealevel;temperature;humidity
71457;BME280;59263;48.160;11.752;2023-04-07T00:01:27;95901.88;;;0.47;100.00
71457;BME280;59263;48.160;11.752;2023-04-07T00:03:52;95900.81;;;0.51;100.00
71457;BME280;59263;48.160;11.752;2023-04-07T00:06:17;95881.41;;;0.33;100.00
71457;BME280;59263;48.160;11.752;2023-04-07T00:08:43;95904.56;;;0.44;100.00
71457;BME280;59263;48.160;11.752;2023-04-07T00:11:08;95901.28;;;0.42;100.00
71457;BME280;59263;48.160;11.752;2023-04-07T00:13:33;95887.53;;;0.29;100.00
71457;BME280;59263;48.160;11.752;2023-04-07T00:15:59;95889.28;;;0.28;100.00
71457;BME280;59263;48.160;11.752;2023-04-07T00:18:24;95903.25;;;0.37;100.00
71457;BME280;59263;48.160;11.752;2023-04-07T00:20:50;95901.59;;;0.36;100.00
71457;BME280;59263;48.160;11.752;2023-04-07T00:23:15;95883.47;;;0.26;100.00
71457;BME280;59263;48.160;11.752;2023-04-07T00:25:40;95882.94;;;0.19;100.00
71457;BME280;59263;48.160;11.752;2023-04-07T00:28:06;95890.91;;;0.29;100.00
71457;BME280;59263;48.160;11.752;2023-04-07T00:30:31;95871.09;;;0.18;100.00
71457;BME280;59263;48.160;11.752;2023-04-07T00:32:56;95869.56;;;0.16;100.00
71457;BME280;59263;48.160;11.752;2023-04-07T00:35:21;95893.41;;;0.31;100.00
71457;BME280;59263;48.160;11.752;2023-04-07T00:37:47;95881.88;;;0.23;100.00
71457;BME280;59263;48.160;11.752;2023-04-07T00:40:12;95882.59;;;0.26;100.00
71457;BME280;59263;48.160;11.752;2023-04-07T00:42:38;95883.38;;;0.28;100.00
71457;BME280;59263;48.160;11.752;2023-04-07T00:45:03;95877.78;;;0.37;100.00
71457;BME280;59263;48.160;11.752;2023-04-07T00:47:29;95866.88;;;0.35;100.00
71457;BME280;59263;48.160;11.752;2023-04-07T00:49:54;95869.19;;;0.39;100.00
71457;BME280;59263;48.160;11.752;2023-04-07T00:52:20;95866.47;;;0.42;100.00
71457;BME280;59263;48.160;11.752;2023-04-07T00:54:53;95865.50;;;0.45;100.00
71457;BME280;59263;48.160;11.752;2023-04-07T00:57:18;95871.31;;;0.47;100.00
71457;BME280;59263;48.160;11.752;2023-04-07T00:59:44;95855.63;;;0.39;100.00
71457;BME280;59263;48.160;11.752;2023-04-07T01:04:50;95859.50;;;0.46;100.00
71457;BME280;59263;48.160;11.752;2023-04-07T01:07:27;95869.38;;;0.52;100.00
71457;BME280;59263;48.160;11.752;2023-04-07T01:10:01;95857.03;;;0.44;100.00
71457;BME280;59263;48.160;11.752;2023-04-07T01:14:54;95852.03;;;0.43;100.00
71457;BME280;59263;48.160;11.752;2023-04-07T01:17:24;95861.75;;;0.52;100.00
71457;BME280;59263;48.160;11.752;2023-04-07T01:20:01;95853.50;;;0.47;100.00
71457;BME280;59263;48.160;11.752;2023-04-07T01:22:41;95852.53;;;0.50;100.00
71457;BME280;59263;48.160;11.752;2023-04-07T01:27:53;95846.63;;;0.49;100.00
71457;BME280;59263;48.160;11.752;2023-04-07T01:30:27;95857.69;;;0.48;100.00
71457;BME280;59263;48.160;11.752;2023-04-07T01:32:54;95846.28;;;0.39;100.00
71457;BME280;59263;48.160;11.752;2023-04-07T01:35:21;95863.13;;;0.42;100.00
71457;BME280;59263;48.160;11.752;2023-04-07T01:37:48;95849.22;;;0.32;100.00
71457;BME280;59263;48.160;11.752;2023-04-07T01:40:15;95849.22;;;0.32;100.00
71457;BME280;59263;48.160;11.752;2023-04-07T01:42:41;95847.66;;;0.29;100.00
71457;BME280;59263;48.160;11.752;2023-04-07T01:45:07;95860.31;;;0.31;100.00
71457;BME280;59263;48.160;11.752;2023-04-07T01:47:35;95856.09;;;0.30;100.00
71457;BME280;59263;48.160;11.752;2023-04-07T01:50:02;95856.03;;;0.31;100.00
71457;BME280;59263;48.160;11.752;2023-04-07T01:52:30;95851.19;;;0.27;100.00
71457;BME280;59263;48.160;11.752;2023-04-07T01:54:56;95851.63;;;0.35;100.00
71457;BME280;59263;48.160;11.752;2023-04-07T01:57:21;95850.72;;;0.36;100.00
71457;BME280;59263;48.160;11.752;2023-04-07T01:59:47;95845.63;;;0.36;100.00
71457;BME280;59263;48.160;11.752;2023-04-07T02:02:12;95834.09;;;0.29;100.00
71457;BME280;59263;48.160;11.752;2023-04-07T02:04:52;95853.00;;;0.40;100.00
71457;BME280;59263;48.160;11.752;2023-04-07T02:07:26;95827.22;;;0.31;100.00
71457;BME280;59263;48.160;11.752;2023-04-07T02:09:55;95841.44;;;0.35;100.00
71457;BME280;59263;48.160;11.752;2023-04-07T02:12:22;95853.09;;;0.39;100.00
71457;BME280;59263;48.160;11.752;2023-04-07T02:14:50;95858.09;;;0.40;100.00
71457;BME280;59263;48.160;11.752;2023-04-07T02:17:16;95860.41;;;0.45;100.00
71457;BME280;59263;48.160;11.752;2023-04-07T02:19:43;95843.31;;;0.47;100.00
71457;BME280;59263;48.160;11.752;2023-04-07T02:22:10;95845.63;;;0.52;100.00
71457;BME280;59263;48.160;11.752;2023-04-07T02:24:36;95837.31;;;0.48;100.00
71457;BME280;59263;48.160;11.752;2023-04-07T02:27:01;95828.97;;;0.46;100.00
71457;BME280;59263;48.160;11.752;2023-04-07T02:29:27;95828.22;;;0.44;100.00
71457;BME280;59263;48.160;11.752;2023-04-07T02:31:52;95840.72;;;0.48;100.00
71457;BME280;59263;48.160;11.752;2023-04-07T02:34:17;95841.53;;;0.49;100.00
71457;BME280;59263;48.160;11.752;2023-04-07T02:36:43;95831.66;;;0.43;100.00
71457;BME280;59263;48.160;11.752;2023-04-07T02:39:08;95829.44;;;0.37;100.00
71457;BME280;59263;48.160;11.752;2023-04-07T02:41:34;95834.38;;;0.40;100.00
71457;BME280;59263;48.160;11.752;2023-04-07T02:43:59;95817.22;;;0.28;100.00
71457;BME280;59263;48.160;11.752;2023-04-07T02:46:25;95825.41;;;0.33;100.00
71457;BME280;59263;48.160;11.752;2023-04-07T02:48:50;95830.50;;;0.33;100.00
71457;BME280;59263;48.160;11.752;2023-04-07T02:51:16;95829.63;;;0.34;100.00
71457;BME280;59263;48.160;11.752;2023-04-07T02:53:41;95831.16;;;0.36;100.00
71457;BME280;59263;48.160;11.752;2023-04-07T02:56:07;95824.53;;;0.34;100.00
71457;BME280;59263;48.160;11.752;2023-04-07T02:58:32;95829.22;;;0.41;100.00
71457;BME280;59263;48.160;11.752;2023-04-07T03:00:57;95826.56;;;0.43;100.00
71457;BME280;59263;48.160;11.752;2023-04-07T03:03:22;95839.88;;;0.48;100.00
71457;BME280;59263;48.160;11.752;2023-04-07T03:05:48;95825.34;;;0.50;100.00
71457;BME280;59263;48.160;11.752;2023-04-07T03:08:13;95831.00;;;0.55;100.00
71457;BME280;59263;48.160;11.752;2023-04-07T03:10:38;95834.97;;;0.61;100.00
71457;BME280;59263;48.160;11.752;2023-04-07T03:13:04;95812.22;;;0.58;100.00
71457;BME280;59263;48.160;11.752;2023-04-07T03:15:30;95819.38;;;0.67;100.00
71457;BME280;59263;48.160;11.752;2023-04-07T03:17:55;95820.66;;;0.74;100.00
71457;BME280;59263;48.160;11.752;2023-04-07T03:20:20;95818.03;;;0.76;100.00
71457;BME280;59263;48.160;11.752;2023-04-07T03:22:45;95819.34;;;0.83;100.00
71457;BME280;59263;48.160;11.752;2023-04-07T03:25:11;95808.91;;;0.87;100.00
71457;BME280;59263;48.160;11.752;2023-04-07T03:27:37;95799.94;;;0.96;100.00
71457;BME280;59263;48.160;11.752;2023-04-07T03:30:03;95806.97;;;1.07;100.00
71457;BME280;59263;48.160;11.752;2023-04-07T03:32:28;95806.31;;;1.63;100.00
71457;BME280;59263;48.160;11.752;2023-04-07T03:34:53;95797.34;;;2.56;100.00
71457;BME280;59263;48.160;11.752;2023-04-07T03:37:19;95793.84;;;3.11;100.00
71457;BME280;59263;48.160;11.752;2023-04-07T03:39:44;95794.66;;;3.39;100.00
71457;BME280;59263;48.160;11.752;2023-04-07T03:42:09;95791.72;;;3.45;100.00
71457;BME280;59263;48.160;11.752;2023-04-07T03:44:35;95791.19;;;3.53;100.00
71457;BME280;59263;48.160;11.752;2023-04-07T03:47:00;95770.00;;;3.51;100.00
71457;BME280;59263;48.160;11.752;2023-04-07T03:49:26;95804.19;;;3.62;100.00
71457;BME280;59263;48.160;11.752;2023-04-07T03:51:51;95800.72;;;3.63;100.00
71457;BME280;59263;48.160;11.752;2023-04-07T03:54:16;95800.72;;;3.63;100.00
71457;BME280;59263;48.160;11.752;2023-04-07T03:56:42;95803.28;;;3.63;100.00
71457;BME280;59263;48.160;11.752;2023-04-07T03:59:07;95801.13;;;3.57;100.00
71457;BME280;59263;48.160;11.752;2023-04-07T04:01:33;95797.84;;;3.55;100.00
71457;BME280;59263;48.160;11.752;2023-04-07T04:03:58;95793.97;;;3.50;100.00
71457;BME280;59263;48.160;11.752;2023-04-07T04:06:23;95785.66;;;3.46;100.00
71457;BME280;59263;48.160;11.752;2023-04-07T04:08:49;95797.03;;;3.55;100.00
71457;BME280;59263;48.160;11.752;2023-04-07T04:11:14;95791.28;;;3.51;100.00
71457;BME280;59263;48.160;11.752;2023-04-07T04:13:40;95795.69;;;3.49;100.00
71457;BME280;59263;48.160;11.752;2023-04-07T04:16:06;95798.25;;;3.49;100.00
71457;BME280;59263;48.160;11.752;2023-04-07T04:18:31;95795.16;;;3.44;100.00
71457;BME280;59263;48.160;11.752;2023-04-07T04:20:56;95786.78;;;3.42;100.00
71457;BME280;59263;48.160;11.752;2023-04-07T04:23:23;95781.88;;;3.39;100.00
71457;BME280;59263;48.160;11.752;2023-04-07T04:25:48;95797.44;;;3.49;100.00
71457;BME280;59263;48.160;11.752;2023-04-07T04:28:14;95798.44;;;3.46;100.00
71457;BME280;59263;48.160;11.752;2023-04-07T04:30:39;95784.63;;;3.36;100.00
71457;BME280;59263;48.160;11.752;2023-04-07T04:33:05;95783.69;;;3.37;100.00
71457;BME280;59263;48.160;11.752;2023-04-07T04:35:30;95795.34;;;3.41;100.00
71457;BME280;59263;48.160;11.752;2023-04-07T04:37:55;95798.66;;;3.43;100.00
71457;BME280;59263;48.160;11.752;2023-04-07T04:40:21;95779.00;;;3.31;100.00
71457;BME280;59263;48.160;11.752;2023-04-07T04:42:46;95803.94;;;3.40;100.00
71457;BME280;59263;48.160;11.752;2023-04-07T04:45:12;95801.31;;;3.42;100.00
71457;BME280;59263;48.160;11.752;2023-04-07T04:47:37;95805.81;;;3.38;100.00
71457;BME280;59263;48.160;11.752;2023-04-07T04:50:04;95800.69;;;3.38;100.00
71457;BME280;59263;48.160;11.752;2023-04-07T04:52:30;95794.84;;;3.36;100.00
71457;BME280;59263;48.160;11.752;2023-04-07T04:54:55;95793.22;;;3.35;100.00
71457;BME280;59263;48.160;11.752;2023-04-07T04:57:21;95807.94;;;3.44;100.00
71457;BME280;59263;48.160;11.752;2023-04-07T04:59:46;95794.47;;;3.42;100.00
71457;BME280;59263;48.160;11.752;2023-04-07T05:02:11;95794.25;;;3.45;100.00
71457;BME280;59263;48.160;11.752;2023-04-07T05:04:37;95785.97;;;3.42;100.00
71457;BME280;59263;48.160;11.752;2023-04-07T05:07:02;95790.66;;;3.48;100.00
71457;BME280;59263;48.160;11.752;2023-04-07T05:09:28;95782.38;;;3.44;100.00
71457;BME280;59263;48.160;11.752;2023-04-07T05:11:53;95778.69;;;3.48;100.00
71457;BME280;59263;48.160;11.752;2023-04-07T05:14:18;95794.16;;;3.59;100.00
71457;BME280;59263;48.160;11.752;2023-04-07T05:16:44;95784.75;;;3.60;100.00
71457;BME280;59263;48.160;11.752;2023-04-07T05:19:09;95780.53;;;3.59;100.00
71457;BME280;59263;48.160;11.752;2023-04-07T05:21:34;95789.75;;;3.61;100.00
71457;BME280;59263;48.160;11.752;2023-04-07T05:24:00;95775.75;;;3.54;100.00
71457;BME280;59263;48.160;11.752;2023-04-07T05:26:25;95785.56;;;3.60;100.00
71457;BME280;59263;48.160;11.752;2023-04-07T05:28:51;95799.88;;;3.63;100.00
71457;BME280;59263;48.160;11.752;2023-04-07T05:31:16;95783.09;;;3.59;100.00
71457;BME280;59263;48.160;11.752;2023-04-07T05:33:41;95779.41;;;3.50;100.00
71457;BME280;59263;48.160;11.752;2023-04-07T05:36:07;95790.16;;;3.55;100.00
71457;BME280;59263;48.160;11.752;2023-04-07T05:38:32;95777.78;;;3.49;100.00
71457;BME280;59263;48.160;11.752;2023-04-07T05:40:57;95779.81;;;3.44;100.00
71457;BME280;59263;48.160;11.752;2023-04-07T05:43:23;95780.94;;;3.40;100.00
71457;BME280;59263;48.160;11.752;2023-04-07T05:45:48;95787.19;;;3.36;100.00
71457;BME280;59263;48.160;11.752;2023-04-07T05:48:13;95779.00;;;3.31;100.00
71457;BME280;59263;48.160;11.752;2023-04-07T05:50:39;95789.41;;;3.28;100.00
71457;BME280;59263;48.160;11.752;2023-04-07T05:53:04;95783.88;;;3.21;100.00
71457;BME280;59263;48.160;11.752;2023-04-07T05:55:29;95784.88;;;3.19;100.00
71457;BME280;59263;48.160;11.752;2023-04-07T05:57:55;95785.81;;;3.18;100.00
71457;BME280;59263;48.160;11.752;2023-04-07T06:00:20;95777.94;;;3.21;100.00
71457;BME280;59263;48.160;11.752;2023-04-07T06:02:46;95793.59;;;3.29;100.00
71457;BME280;59263;48.160;11.752;2023-04-07T06:05:11;95779.19;;;3.28;100.00
71457;BME280;59263;48.160;11.752;2023-04-07T06:07:36;95774.50;;;3.34;100.00
71457;BME280;59263;48.160;11.752;2023-04-07T06:10:02;95782.91;;;3.49;100.00
71457;BME280;59263;48.160;11.752;2023-04-07T06:12:27;95775.31;;;3.48;100.00
71457;BME280;59263;48.160;11.752;2023-04-07T06:14:53;95786.41;;;3.61;100.00
71457;BME280;59263;48.160;11.752;2023-04-07T06:17:19;95790.69;;;3.60;100.00
71457;BME280;59263;48.160;11.752;2023-04-07T06:19:45;95784.44;;;3.64;100.00
71457;BME280;59263;48.160;11.752;2023-04-07T06:22:11;95778.09;;;3.57;100.00
71457;BME280;59263;48.160;11.752;2023-04-07T06:24:36;95766.94;;;3.58;100.00
71457;BME280;59263;48.160;11.752;2023-04-07T06:27:02;95770.22;;;3.60;100.00
71457;BME280;59263;48.160;11.752;2023-04-07T06:29:28;95773.28;;;3.66;100.00
71457;BME280;59263;48.160;11.752;2023-04-07T06:31:54;95784.25;;;3.80;100.00
71457;BME280;59263;48.160;11.752;2023-04-07T06:34:19;95783.72;;;3.88;100.00
71457;BME280;59263;48.160;11.752;2023-04-07T06:36:45;95783.03;;;3.86;100.00
71457;BME280;59263;48.160;11.752;2023-04-07T06:39:10;95772.06;;;3.84;100.00
71457;BME280;59263;48.160;11.752;2023-04-07T06:41:35;95769.81;;;3.92;100.00
71457;BME280;59263;48.160;11.752;2023-04-07T06:44:03;95776.97;;;4.00;100.00
71457;BME280;59263;48.160;11.752;2023-04-07T06:46:28;95743.38;;;3.92;100.00
71457;BME280;59263;48.160;11.752;2023-04-07T06:48:53;95752.56;;;4.20;100.00
71457;BME280;59263;48.160;11.752;2023-04-07T06:51:19;95757.63;;;4.45;100.00
71457;BME280;59263;48.160;11.752;2023-04-07T06:53:44;95742.81;;;4.61;100.00
71457;BME280;59263;48.160;11.752;2023-04-07T06:56:11;95744.34;;;4.88;100.00
71457;BME280;59263;48.160;11.752;2023-04-07T06:58:37;95742.63;;;5.00;100.00
71457;BME280;59263;48.160;11.752;2023-04-07T07:01:03;95756.31;;;5.12;100.00
71457;BME280;59263;48.160;11.752;2023-04-07T07:03:29;95752.75;;;5.25;100.00
71457;BME280;59263;48.160;11.752;2023-04-07T07:06:00;95755.66;;;5.21;100.00
71457;BME280;59263;48.160;11.752;2023-04-07T07:08:26;95751.94;;;5.25;100.00
71457;BME280;59263;48.160;11.752;2023-04-07T07:10:52;95750.09;;;5.27;100.00
71457;BME280;59263;48.160;11.752;2023-04-07T07:13:18;95752.22;;;5.44;100.00
71457;BME280;59263;48.160;11.752;2023-04-07T07:15:44;95748.25;;;5.51;100.00
71457;BME280;59263;48.160;11.752;2023-04-07T07:18:10;95746.63;;;5.50;100.00
71457;BME280;59263;48.160;11.752;2023-04-07T07:20:35;95739.41;;;5.55;100.00
71457;BME280;59263;48.160;11.752;2023-04-07T07:23:01;95731.91;;;5.52;100.00
71457;BME280;59263;48.160;11.752;2023-04-07T07:25:26;95731.03;;;5.76;100.00
71457;BME280;59263;48.160;11.752;2023-04-07T07:27:52;95692.88;;;5.71;100.00
71457;BME280;59263;48.160;11.752;2023-04-07T07:30:21;95709.34;;;6.02;100.00
71457;BME280;59263;48.160;11.752;2023-04-07T07:32:47;95729.53;;;6.29;100.00
71457;BME280;59263;48.160;11.752;2023-04-07T07:35:13;95726.94;;;6.41;100.00
71457;BME280;59263;48.160;11.752;2023-04-07T07:37:39;95705.56;;;6.40;100.00
71457;BME280;59263;48.160;11.752;2023-04-07T07:40:04;95732.06;;;6.41;100.00
71457;BME280;59263;48.160;11.752;2023-04-07T07:42:30;95703.59;;;6.33;100.00
71457;BME280;59263;48.160;11.752;2023-04-07T07:44:56;95718.03;;;6.45;100.00
71457;BME280;59263;48.160;11.752;2023-04-07T07:47:21;95713.13;;;6.64;100.00
71457;BME280;59263;48.160;11.752;2023-04-07T07:49:47;95709.19;;;6.81;100.00
71457;BME280;59263;48.160;11.752;2023-04-07T07:52:14;95721.28;;;7.01;100.00
71457;BME280;59263;48.160;11.752;2023-04-07T07:54:40;95699.56;;;6.94;100.00
71457;BME280;59263;48.160;11.752;2023-04-07T07:57:05;95727.38;;;6.89;100.00
71457;BME280;59263;48.160;11.752;2023-04-07T07:59:31;95712.53;;;6.61;100.00
71457;BME280;59263;48.160;11.752;2023-04-07T08:01:56;95746.88;;;6.60;100.00
71457;BME280;59263;48.160;11.752;2023-04-07T08:04:22;95717.81;;;6.48;100.00
71457;BME280;59263;48.160;11.752;2023-04-07T08:06:49;95733.19;;;6.70;100.00
71457;BME280;59263;48.160;11.752;2023-04-07T08:09:15;95750.81;;;6.86;100.00
71457;BME280;59263;48.160;11.752;2023-04-07T08:11:40;95713.38;;;6.82;100.00
71457;BME280;59263;48.160;11.752;2023-04-07T08:37:22;95722.91;;;7.65;100.00
71457;BME280;59263;48.160;11.752;2023-04-07T08:39:48;95728.63;;;7.48;100.00
71457;BME280;59263;48.160;11.752;2023-04-07T08:42:13;95701.72;;;7.31;100.00
71457;BME280;59263;48.160;11.752;2023-04-07T08:44:40;95692.91;;;7.55;100.00
71457;BME280;59263;48.160;11.752;2023-04-07T08:47:06;95690.94;;;7.68;100.00
71457;BME280;59263;48.160;11.752;2023-04-07T08:49:35;95704.69;;;8.09;100.00
71457;BME280;59263;48.160;11.752;2023-04-07T08:52:05;95703.44;;;8.43;100.00
71457;BME280;59263;48.160;11.752;2023-04-07T08:54:33;95686.25;;;8.73;100.00
71457;BME280;59263;48.160;11.752;2023-04-07T08:56:59;95669.13;;;8.62;100.00
71457;BME280;59263;48.160;11.752;2023-04-07T08:59:29;95669.84;;;8.34;100.00
71457;BME280;59263;48.160;11.752;2023-04-07T09:02:13;95717.88;;;8.75;100.00
71457;BME280;59263;48.160;11.752;2023-04-07T09:04:42;95702.41;;;8.94;100.00
71457;BME280;59263;48.160;11.752;2023-04-07T09:07:08;95685.16;;;8.95;100.00
71457;BME280;59263;48.160;11.752;2023-04-07T09:09:34;95692.75;;;9.16;100.00
71457;BME280;59263;48.160;11.752;2023-04-07T09:12:00;95668.56;;;9.17;100.00
71457;BME280;59263;48.160;11.752;2023-04-07T09:14:25;95667.63;;;9.18;100.00
71457;BME280;59263;48.160;11.752;2023-04-07T09:16:51;95687.28;;;9.38;100.00
71457;BME280;59263;48.160;11.752;2023-04-07T09:19:16;95674.19;;;9.59;100.00
71457;BME280;59263;48.160;11.752;2023-04-07T09:21:49;95682.66;;;9.89;100.00
71457;BME280;59263;48.160;11.752;2023-04-07T09:24:25;95695.16;;;10.21;100.00
71457;BME280;59263;48.160;11.752;2023-04-07T09:27:07;95692.59;;;10.49;100.00
71457;BME280;59263;48.160;11.752;2023-04-07T09:29:34;95691.31;;;10.35;100.00
71457;BME280;59263;48.160;11.752;2023-04-07T09:31:59;95679.84;;;10.37;100.00
71457;BME280;59263;48.160;11.752;2023-04-07T09:34:32;95691.53;;;10.41;100.00
71457;BME280;59263;48.160;11.752;2023-04-07T09:36:58;95688.19;;;10.59;100.00
71457;BME280;59263;48.160;11.752;2023-04-07T09:39:24;95693.94;;;10.71;100.00
71457;BME280;59263;48.160;11.752;2023-04-07T09:41:49;95676.00;;;10.69;100.00
71457;BME280;59263;48.160;11.752;2023-04-07T09:44:17;95643.22;;;10.60;100.00
71457;BME280;59263;48.160;11.752;2023-04-07T09:49:15;95661.63;;;10.93;100.00
71457;BME280;59263;48.160;11.752;2023-04-07T09:51:57;95650.19;;;10.95;100.00
71457;BME280;59263;48.160;11.752;2023-04-07T09:54:35;95664.50;;;11.25;100.00
71457;BME280;59263;48.160;11.752;2023-04-07T09:57:02;95634.19;;;10.82;100.00
71457;BME280;59263;48.160;11.752;2023-04-07T09:59:28;95654.78;;;10.83;100.00
71457;BME280;59263;48.160;11.752;2023-04-07T10:01:54;95667.03;;;11.17;100.00
71457;BME280;59263;48.160;11.752;2023-04-07T10:04:21;95635.22;;;11.07;100.00
71457;BME280;59263;48.160;11.752;2023-04-07T10:06:46;95641.16;;;10.46;100.00
71457;BME280;59263;48.160;11.752;2023-04-07T10:09:12;95666.34;;;10.16;100.00
71457;BME280;59263;48.160;11.752;2023-04-07T10:11:40;95671.03;;;10.58;100.00
71457;BME280;59263;48.160;11.752;2023-04-07T10:14:08;95663.91;;;10.60;100.00
71457;BME280;59263;48.160;11.752;2023-04-07T10:16:34;95642.78;;;10.47;100.00
71457;BME280;59263;48.160;11.752;2023-04-07T10:19:00;95628.44;;;10.70;100.00
71457;BME280;59263;48.160;11.752;2023-04-07T10:21:26;95651.28;;;10.39;100.00
71457;BME280;59263;48.160;11.752;2023-04-07T10:26:42;95660.91;;;10.82;100.00
71457;BME280;59263;48.160;11.752;2023-04-07T10:29:10;95626.78;;;10.33;97.73
71457;BME280;59263;48.160;11.752;2023-04-07T10:31:38;95642.63;;;9.65;100.00
71457;BME280;59263;48.160;11.752;2023-04-07T10:34:03;95654.31;;;9.69;100.00
71457;BME280;59263;48.160;11.752;2023-04-07T10:36:30;95637.13;;;9.78;100.00
71457;BME280;59263;48.160;11.752;2023-04-07T10:41:36;95672.06;;;9.82;100.00
71457;BME280;59263;48.160;11.752;2023-04-07T10:44:03;95656.09;;;9.97;100.00
71457;BME280;59263;48.160;11.752;2023-04-07T10:49:16;95661.72;;;10.65;100.00
71457;BME280;59263;48.160;11.752;2023-04-07T10:51:42;95673.41;;;10.69;100.00
71457;BME280;59263;48.160;11.752;2023-04-07T10:54:15;95668.38;;;10.50;100.00
71457;BME280;59263;48.160;11.752;2023-04-07T10:59:33;95662.66;;;10.82;100.00
71457;BME280;59263;48.160;11.752;2023-04-07T11:04:47;95607.66;;;10.80;97.39
71457;BME280;59263;48.160;11.752;2023-04-07T11:07:13;95647.59;;;10.95;99.23
71457;BME280;59263;48.160;11.752;2023-04-07T11:09:40;95632.28;;;11.02;95.44
71457;BME280;59263;48.160;11.752;2023-04-07T11:12:06;95634.38;;;11.24;96.13
71457;BME280;59263;48.160;11.752;2023-04-07T11:14:32;95625.47;;;12.21;90.86
71457;BME280;59263;48.160;11.752;2023-04-07T11:16:59;95630.16;;;13.25;85.98
71457;BME280;59263;48.160;11.752;2023-04-07T11:19:27;95619.94;;;13.88;76.01
71457;BME280;59263;48.160;11.752;2023-04-07T11:22:12;95638.81;;;14.60;67.98
71457;BME280;59263;48.160;11.752;2023-04-07T11:24:37;95624.97;;;14.83;63.06
71457;BME280;59263;48.160;11.752;2023-04-07T11:27:03;95619.41;;;15.46;60.11
71457;BME280;59263;48.160;11.752;2023-04-07T11:29:30;95619.31;;;16.65;58.09
71457;BME280;59263;48.160;11.752;2023-04-07T11:32:00;95602.41;;;17.88;52.06
71457;BME280;59263;48.160;11.752;2023-04-07T11:34:33;95617.25;;;18.77;49.91
71457;BME280;59263;48.160;11.752;2023-04-07T11:37:19;95593.69;;;19.30;45.83
71457;BME280;59263;48.160;11.752;2023-04-07T11:39:54;95595.69;;;19.15;44.06
71457;BME280;59263;48.160;11.752;2023-04-07T11:42:33;95600.56;;;18.30;46.04
71457;BME280;59263;48.160;11.752;2023-04-07T11:44:59;95616.47;;;19.09;44.68
71457;BME280;59263;48.160;11.752;2023-04-07T11:47:35;95617.91;;;18.37;46.28
71457;BME280;59263;48.160;11.752;2023-04-07T11:50:01;95612.44;;;19.00;43.40
71457;BME280;59263;48.160;11.752;2023-04-07T11:52:26;95593.06;;;19.41;42.97
71457;BME280;59263;48.160;11.752;2023-04-07T11:54:51;95605.69;;;18.65;44.40
71457;BME280;59263;48.160;11.752;2023-04-07T11:57:27;95576.91;;;18.78;44.36
71457;BME280;59263;48.160;11.752;2023-04-07T12:00:07;95599.13;;;16.59;47.30
71457;BME280;59263;48.160;11.752;2023-04-07T12:02:33;95583.72;;;14.94;56.07
71457;BME280;59263;48.160;11.752;2023-04-07T12:04:58;95578.91;;;13.59;63.92
71457;BME280;59263;48.160;11.752;2023-04-07T12:07:24;95616.66;;;12.81;73.02
71457;BME280;59263;48.160;11.752;2023-04-07T12:09:52;95609.81;;;11.89;84.21
71457;BME280;59263;48.160;11.752;2023-04-07T12:12:27;95597.41;;;11.74;89.99
71457;BME280;59263;48.160;11.752;2023-04-07T12:14:54;95594.72;;;11.50;93.91
71457;BME280;59263;48.160;11.752;2023-04-07T12:17:21;95613.94;;;11.73;90.17
71457;BME280;59263;48.160;11.752;2023-04-07T12:19:46;95608.06;;;11.71;88.62
71457;BME280;59263;48.160;11.752;2023-04-07T12:22:12;95604.53;;;12.15;94.12
71457;BME280;59263;48.160;11.752;2023-04-07T12:24:37;95593.25;;;12.32;86.22
71457;BME280;59263;48.160;11.752;2023-04-07T12:27:03;95594.06;;;12.32;87.15
71457;BME280;59263;48.160;11.752;2023-04-07T12:29:28;95606.28;;;12.65;89.57
71457;BME280;59263;48.160;11.752;2023-04-07T12:31:54;95596.03;;;12.55;83.37
71457;BME280;59263;48.160;11.752;2023-04-07T12:34:20;95578.34;;;12.58;91.92
71457;BME280;59263;48.160;11.752;2023-04-07T12:36:45;95610.34;;;12.92;84.10
71457;BME280;59263;48.160;11.752;2023-04-07T12:39:11;95612.59;;;13.03;81.67
71457;BME280;59263;48.160;11.752;2023-04-07T12:41:37;95598.31;;;13.15;89.76
71457;BME280;59263;48.160;11.752;2023-04-07T12:44:03;95617.16;;;12.84;85.97
71457;BME280;59263;48.160;11.752;2023-04-07T12:46:29;95583.06;;;12.47;94.83
71457;BME280;59263;48.160;11.752;2023-04-07T12:48:54;95592.06;;;12.10;90.06
71457;BME280;59263;48.160;11.752;2023-04-07T12:51:20;95602.16;;;12.29;94.75
71457;BME280;59263;48.160;11.752;2023-04-07T12:53:46;95602.78;;;12.23;87.04
71457;BME280;59263;48.160;11.752;2023-04-07T12:56:12;95585.50;;;11.90;96.37
71457;BME280;59263;48.160;11.752;2023-04-07T12:58:38;95616.09;;;12.28;86.22
71457;BME280;59263;48.160;11.752;2023-04-07T13:01:04;95615.09;;;12.21;88.84
71457;BME280;59263;48.160;11.752;2023-04-07T13:03:30;95583.25;;;11.95;89.60
71457;BME280;59263;48.160;11.752;2023-04-07T13:05:55;95599.34;;;11.72;87.67
71457;BME280;59263;48.160;11.752;2023-04-07T13:08:28;95599.66;;;11.69;86.37
71457;BME280;59263;48.160;11.752;2023-04-07T13:10:54;95610.94;;;11.60;95.42
71457;BME280;59263;48.160;11.752;2023-04-07T13:13:20;95600.34;;;11.79;100.00
71457;BME280;59263;48.160;11.752;2023-04-07T13:15:45;95619.38;;;11.88;99.52
71457;BME280;59263;48.160;11.752;2023-04-07T13:18:11;95606.09;;;11.57;94.43
71457;BME280;59263;48.160;11.752;2023-04-07T13:20:36;95577.22;;;11.00;96.01
71457;BME280;59263;48.160;11.752;2023-04-07T13:23:02;95568.38;;;10.84;100.00
71457;BME280;59263;48.160;11.752;2023-04-07T13:25:27;95575.31;;;11.02;100.00
71457;BME280;59263;48.160;11.752;2023-04-07T13:27:53;95610.34;;;11.40;100.00
71457;BME280;59263;48.160;11.752;2023-04-07T13:30:18;95596.59;;;11.39;100.00
71457;BME280;59263;48.160;11.752;2023-04-07T13:32:43;95607.25;;;11.36;100.00